createdAt,value
2023-10-05T00:01:47.848Z,99856.19
2023-10-05T00:04:52.715Z,99862.06
2023-10-05T00:07:56.122Z,99861.31
2023-10-05T00:11:01.490Z,99862.00
2023-10-05T00:14:08.300Z,99859.34
2023-10-05T00:17:13.381Z,99848.97
2023-10-05T00:20:25.452Z,99850.91
2023-10-05T00:23:30.747Z,99840.19
2023-10-05T00:26:34.260Z,99846.16
2023-10-05T00:29:42.815Z,99840.75
2023-10-05T00:32:53.403Z,99839.88
2023-10-05T00:35:57.917Z,99833.97
2023-10-05T00:39:03.332Z,99821.47
2023-10-05T00:42:10.312Z,99822.34
2023-10-05T00:45:18.269Z,99821.31
2023-10-05T00:48:31.112Z,99813.50
2023-10-05T00:51:35.831Z,99817.13
2023-10-05T00:54:41.665Z,99819.06
2023-10-05T00:57:46.305Z,99818.75
2023-10-05T01:00:52.941Z,99808.22
2023-10-05T01:04:19.856Z,99807.59
2023-10-05T01:07:41.016Z,99803.75
2023-10-05T01:10:46.808Z,99810.59
2023-10-05T01:13:50.182Z,99804.28
2023-10-05T01:16:55.752Z,99802.97
2023-10-05T01:20:14.373Z,99789.84
2023-10-05T01:23:20.595Z,99791.34
2023-10-05T01:26:23.797Z,99798.03
2023-10-05T01:29:27.780Z,99794.25
2023-10-05T01:32:31.038Z,99801.88
2023-10-05T01:35:34.856Z,99802.59
2023-10-05T01:38:41.080Z,99803.88
2023-10-05T01:41:44.776Z,99808.06
2023-10-05T01:44:49.293Z,99791.69
2023-10-05T01:47:55.439Z,99803.59
2023-10-05T01:51:02.466Z,99800.94
2023-10-05T01:54:13.295Z,99797.09
2023-10-05T01:57:18.100Z,99792.06
2023-10-05T02:00:22.306Z,99790.69
2023-10-05T02:03:26.753Z,99788.28
2023-10-05T02:06:30.727Z,99791.69
2023-10-05T02:09:36.151Z,99783.72
2023-10-05T02:12:40.408Z,99785.94
2023-10-05T02:15:46.794Z,99783.47
2023-10-05T02:18:51.017Z,99776.97
2023-10-05T02:21:55.970Z,99777.13
2023-10-05T02:25:01.321Z,99771.47
2023-10-05T02:28:05.865Z,99766.06
2023-10-05T02:31:14.464Z,99766.25
2023-10-05T02:34:20.684Z,99754.34
2023-10-05T02:37:29.673Z,99760.75
2023-10-05T02:40:38.393Z,99769.00
2023-10-05T02:43:41.818Z,99762.75
2023-10-05T02:46:45.923Z,99764.47
2023-10-05T02:49:49.620Z,99772.53
2023-10-05T02:52:53.045Z,99762.47
2023-10-05T02:55:57.797Z,99771.81
2023-10-05T02:59:04.367Z,99766.59
2023-10-05T03:02:10.785Z,99770.28
2023-10-05T03:05:14.879Z,99771.66
2023-10-05T03:08:18.403Z,99766.78
2023-10-05T03:11:23.363Z,99768.81
2023-10-05T03:14:26.582Z,99767.97
2023-10-05T03:17:33.097Z,99773.19
2023-10-05T03:20:36.638Z,99770.72
2023-10-05T03:23:42.451Z,99768.63
2023-10-05T03:26:53.386Z,99770.72
2023-10-05T03:30:02.648Z,99770.53
2023-10-05T03:33:07.732Z,99764.38
2023-10-05T03:36:15.382Z,99765.75
2023-10-05T03:39:19.164Z,99762.38
2023-10-05T03:42:24.336Z,99767.63
2023-10-05T03:45:30.302Z,99759.47
2023-10-05T03:48:34.262Z,99747.56
2023-10-05T03:51:38.938Z,99744.41
2023-10-05T03:54:42.971Z,99749.78
2023-10-05T03:57:47.613Z,99740.78
2023-10-05T04:00:51.912Z,99736.06
2023-10-05T04:03:56.619Z,99729.81
2023-10-05T04:07:00.032Z,99716.59
2023-10-05T04:10:05.047Z,99715.56
2023-10-05T04:13:10.819Z,99717.69
2023-10-05T04:16:19.530Z,99709.38
2023-10-05T04:19:24.515Z,99704.56
2023-10-05T04:22:27.910Z,99704.06
2023-10-05T04:25:31.394Z,99706.56
2023-10-05T04:28:36.802Z,99702.59
2023-10-05T04:31:40.718Z,99699.69
2023-10-05T04:34:45.806Z,99693.06
2023-10-05T04:37:51.274Z,99689.25
2023-10-05T04:40:55.832Z,99685.50
2023-10-05T04:44:00.790Z,99673.25
2023-10-05T04:47:05.973Z,99665.34
2023-10-05T04:50:14.617Z,99663.94
2023-10-05T04:53:21.423Z,99663.72
2023-10-05T04:56:41.609Z,99663.00
2023-10-05T05:03:35.008Z,99667.78
2023-10-05T05:06:38.376Z,99663.13
2023-10-05T05:09:43.485Z,99665.84
2023-10-05T05:12:47.469Z,99670.81
2023-10-05T05:15:51.144Z,99672.72
2023-10-05T05:18:56.978Z,99673.56
2023-10-05T05:22:01.792Z,99671.63
2023-10-05T05:25:07.695Z,99667.31
2023-10-05T05:28:11.150Z,99676.84
2023-10-05T05:31:17.995Z,99679.31
2023-10-05T05:34:26.510Z,99671.72
2023-10-05T05:37:30.825Z,99683.13
2023-10-05T05:40:37.787Z,99670.41
2023-10-05T05:43:42.111Z,99680.06
2023-10-05T05:46:46.566Z,99675.09
2023-10-05T05:49:51.842Z,99675.72
2023-10-05T05:52:57.692Z,99670.78
2023-10-05T05:56:05.020Z,99673.69
2023-10-05T05:59:09.625Z,99680.88
2023-10-05T06:02:13.139Z,99674.56
2023-10-05T06:05:17.896Z,99682.88
2023-10-05T06:08:21.264Z,99674.41
2023-10-05T06:11:24.554Z,99690.53
2023-10-05T06:14:28.672Z,99691.38
2023-10-05T06:17:34.507Z,99697.56
2023-10-05T06:20:39.634Z,99698.91
2023-10-05T06:23:43.054Z,99702.66
2023-10-05T06:26:47.269Z,99698.19
2023-10-05T06:29:50.514Z,99700.25
2023-10-05T06:32:54.808Z,99697.50
2023-10-05T06:35:59.519Z,99706.75
2023-10-05T06:39:02.847Z,99685.69
2023-10-05T06:42:07.979Z,99698.19
2023-10-05T06:45:14.830Z,99701.16
2023-10-05T06:48:20.244Z,99703.56
2023-10-05T06:51:27.487Z,99702.78
2023-10-05T06:54:31.398Z,99698.06
2023-10-05T06:57:34.605Z,99703.97
2023-10-05T07:00:37.960Z,99695.75
2023-10-05T07:03:41.310Z,99697.97
2023-10-05T07:06:46.203Z,99685.03
2023-10-05T07:09:50.125Z,99692.94
2023-10-05T07:12:53.630Z,99690.22
2023-10-05T07:15:58.212Z,99690.69
2023-10-05T07:19:01.777Z,99686.34
2023-10-05T07:22:06.951Z,99690.72
2023-10-05T07:25:12.227Z,99685.13
2023-10-05T07:28:16.502Z,99693.13
2023-10-05T07:31:19.966Z,99689.28
2023-10-05T07:34:23.341Z,99695.59
2023-10-05T07:37:28.652Z,99696.84
2023-10-05T07:40:32.243Z,99690.19
2023-10-05T07:43:35.800Z,99692.53
2023-10-05T07:46:39.722Z,99698.19
2023-10-05T07:49:43.977Z,99691.34
2023-10-05T07:52:49.749Z,99699.94
2023-10-05T07:55:54.560Z,99691.53
2023-10-05T07:58:58.015Z,99691.47
2023-10-05T08:02:02.737Z,99682.84
2023-10-05T08:05:06.996Z,99679.38
2023-10-05T08:08:12.768Z,99695.16
2023-10-05T08:11:17.103Z,99682.53
2023-10-05T08:14:21.736Z,99691.16
2023-10-05T08:17:25.467Z,99680.91
2023-10-05T08:20:29.181Z,99686.16
2023-10-05T08:23:35.077Z,99677.91
2023-10-05T08:26:41.119Z,99683.41
2023-10-05T08:29:45.715Z,99680.41
2023-10-05T08:32:50.319Z,99682.50
2023-10-05T08:35:53.787Z,99682.59
2023-10-05T08:38:58.957Z,99673.31
2023-10-05T08:42:07.506Z,99681.09
2023-10-05T08:45:13.565Z,99678.41
2023-10-05T08:48:21.859Z,99684.03
2023-10-05T08:51:26.215Z,99681.53
2023-10-05T08:54:34.747Z,99678.66
2023-10-05T08:57:38.214Z,99677.91
2023-10-05T09:00:41.490Z,99686.38
2023-10-05T09:03:51.226Z,99682.59
2023-10-05T09:06:57.105Z,99678.09
2023-10-05T09:10:02.207Z,99681.06
2023-10-05T09:13:13.668Z,99668.66
2023-10-05T09:16:24.152Z,99662.53
2023-10-05T09:19:31.528Z,99674.34
2023-10-05T09:22:50.099Z,99666.38
2023-10-05T09:25:55.640Z,99674.00
2023-10-05T09:29:14.036Z,99667.97
2023-10-05T09:32:26.928Z,99666.59
2023-10-05T09:35:32.463Z,99656.41
2023-10-05T09:38:39.562Z,99661.63
2023-10-05T09:41:44.406Z,99651.59
2023-10-05T09:44:54.680Z,99656.75
2023-10-05T09:48:02.106Z,99654.81
2023-10-05T09:51:07.873Z,99655.69
2023-10-05T09:54:12.921Z,99663.78
2023-10-05T09:57:22.018Z,99663.38
2023-10-05T10:00:32.060Z,99655.97
2023-10-05T10:03:38.079Z,99660.34
2023-10-05T10:06:41.946Z,99652.38
2023-10-05T10:09:48.925Z,99660.56
2023-10-05T10:12:54.893Z,99652.72
2023-10-05T10:15:59.959Z,99651.72
2023-10-05T10:19:08.866Z,99656.25
2023-10-05T10:22:13.693Z,99664.28
2023-10-05T10:25:39.968Z,99657.06
2023-10-05T10:29:11.090Z,99652.69
2023-10-05T10:32:21.053Z,99643.34
2023-10-05T10:35:28.928Z,99645.03
2023-10-05T10:38:32.377Z,99644.81
2023-10-05T10:41:55.954Z,99644.31
2023-10-05T10:45:00.755Z,99649.91
2023-10-05T10:48:09.890Z,99649.75
2023-10-05T10:51:13.397Z,99640.53
2023-10-05T10:54:21.593Z,99643.34
2023-10-05T10:57:25.278Z,99641.50
2023-10-05T11:00:57.616Z,99623.84
2023-10-05T11:04:05.979Z,99626.25
2023-10-05T11:07:11.159Z,99623.06
2023-10-05T11:10:21.160Z,99618.97
2023-10-05T11:13:25.833Z,99614.13
2023-10-05T11:16:37.487Z,99620.19
2023-10-05T11:19:44.508Z,99607.25
2023-10-05T11:22:48.174Z,99612.63
2023-10-05T11:26:07.674Z,99603.91
2023-10-05T11:29:16.619Z,99594.44
2023-10-05T11:33:26.415Z,99600.31
2023-10-05T11:35:50.982Z,99596.78
2023-10-05T11:39:00.177Z,99586.66
2023-10-05T11:42:05.588Z,99592.09
2023-10-05T11:45:17.462Z,99591.97
2023-10-05T11:48:24.266Z,99584.56
2023-10-05T11:51:42.059Z,99591.00
2023-10-05T11:54:45.818Z,99590.28
2023-10-05T11:57:49.776Z,99584.44
2023-10-05T12:00:53.361Z,99582.53
2023-10-05T12:04:01.084Z,99572.00
2023-10-05T12:07:08.591Z,99583.00
2023-10-05T12:10:12.927Z,99584.38
2023-10-05T12:13:17.030Z,99585.44
2023-10-05T12:16:20.419Z,99581.50
2023-10-05T12:19:30.281Z,99584.19
2023-10-05T12:22:34.510Z,99567.72
2023-10-05T12:25:37.955Z,99570.22
2023-10-05T12:28:42.477Z,99564.34
2023-10-05T12:31:48.508Z,99561.72
2023-10-05T12:34:54.289Z,99571.28
2023-10-05T12:37:59.580Z,99569.50
2023-10-05T12:41:14.208Z,99562.97
2023-10-05T12:44:17.897Z,99568.59
2023-10-05T12:47:23.146Z,99561.91
2023-10-05T12:50:31.150Z,99573.06
2023-10-05T12:53:34.754Z,99568.75
2023-10-05T12:56:40.125Z,99575.06
2023-10-05T12:59:44.544Z,99568.22
2023-10-05T13:02:52.799Z,99572.25
2023-10-05T13:05:58.091Z,99560.47
2023-10-05T13:09:04.894Z,99567.81
2023-10-05T13:12:13.630Z,99569.38
2023-10-05T13:15:17.169Z,99560.63
2023-10-05T13:18:21.015Z,99563.38
2023-10-05T13:21:27.144Z,99550.19
2023-10-05T13:24:30.846Z,99559.13
2023-10-05T13:27:37.330Z,99560.31
2023-10-05T13:30:44.764Z,99559.13
2023-10-05T13:33:49.106Z,99565.81
2023-10-05T13:36:54.171Z,99563.66
2023-10-05T13:40:01.451Z,99559.88
2023-10-05T13:43:07.786Z,99560.03
2023-10-05T13:46:16.928Z,99553.47
2023-10-05T13:49:20.385Z,99551.31
2023-10-05T13:52:25.160Z,99547.03
2023-10-05T13:55:28.598Z,99549.16
2023-10-05T13:58:33.397Z,99547.91
2023-10-05T14:01:39.634Z,99543.19
2023-10-05T14:04:45.106Z,99535.59
2023-10-05T14:07:52.694Z,99533.34
2023-10-05T14:10:56.598Z,99532.00
2023-10-05T14:14:00.431Z,99529.47
2023-10-05T14:17:07.967Z,99531.22
2023-10-05T14:20:13.109Z,99536.44
2023-10-05T14:23:19.980Z,99521.47
2023-10-05T14:26:23.385Z,99526.59
2023-10-05T14:29:36.792Z,99528.44
2023-10-05T14:32:40.286Z,99527.50
2023-10-05T14:35:43.690Z,99525.47
2023-10-05T14:38:51.612Z,99529.41
2023-10-05T14:41:56.951Z,99529.94
2023-10-05T14:45:03.126Z,99524.34
2023-10-05T14:48:15.972Z,99528.09
2023-10-05T14:51:20.006Z,99529.41
2023-10-05T14:54:25.425Z,99535.94
2023-10-05T14:57:32.667Z,99527.03
2023-10-05T15:00:36.610Z,99530.00
2023-10-05T15:03:47.227Z,99519.66
2023-10-05T15:06:50.798Z,99522.25
2023-10-05T15:09:55.719Z,99517.22
2023-10-05T15:13:00.517Z,99525.13
2023-10-05T15:16:07.208Z,99525.28
2023-10-05T15:19:20.833Z,99515.63
2023-10-05T15:22:28.732Z,99524.78
2023-10-05T15:25:41.586Z,99529.06
2023-10-05T15:28:45.418Z,99532.84
2023-10-05T15:32:00.774Z,99531.31
2023-10-05T15:35:04.619Z,99526.53
2023-10-05T15:38:10.662Z,99528.28
2023-10-05T15:41:18.264Z,99525.00
2023-10-05T15:44:21.727Z,99532.31
2023-10-05T15:47:27.335Z,99537.66
2023-10-05T15:50:30.636Z,99530.16
2023-10-05T15:53:52.986Z,99531.38
2023-10-05T15:57:01.930Z,99550.38
2023-10-05T16:00:16.510Z,99550.63
2023-10-05T16:03:20.164Z,99541.72
2023-10-05T16:06:27.148Z,99551.84
2023-10-05T16:09:41.042Z,99557.19
2023-10-05T16:12:49.634Z,99562.56
2023-10-05T16:16:00.391Z,99557.78
2023-10-05T16:19:10.053Z,99561.22
2023-10-05T16:22:14.047Z,99558.06
2023-10-05T16:25:17.473Z,99576.16
2023-10-05T16:28:22.397Z,99566.81
2023-10-05T16:31:25.805Z,99566.69
2023-10-05T16:34:30.407Z,99572.03
2023-10-05T16:37:34.634Z,99573.84
2023-10-05T16:40:38.045Z,99576.31
2023-10-05T16:43:42.765Z,99583.25
2023-10-05T16:46:46.461Z,99578.38
2023-10-05T16:49:49.986Z,99579.34
2023-10-05T16:52:53.735Z,99589.53
2023-10-05T16:55:58.023Z,99584.94
2023-10-05T16:59:09.005Z,99585.56
2023-10-05T17:02:13.011Z,99590.41
2023-10-05T17:05:17.300Z,99585.16
2023-10-05T17:08:22.836Z,99589.78
2023-10-05T17:11:27.235Z,99595.13
2023-10-05T17:14:32.090Z,99599.75
2023-10-05T17:17:35.777Z,99592.09
2023-10-05T17:20:39.194Z,99597.06
2023-10-05T17:23:42.546Z,99593.53
2023-10-05T17:26:46.029Z,99595.84
2023-10-05T17:29:51.059Z,99606.06
2023-10-05T17:32:54.384Z,99600.84
2023-10-05T17:35:57.819Z,99598.50
2023-10-05T17:39:01.212Z,99603.28
2023-10-05T17:42:08.044Z,99612.44
2023-10-05T17:45:13.036Z,99612.41
2023-10-05T17:48:17.722Z,99614.06
2023-10-05T17:51:20.967Z,99622.84
2023-10-05T17:54:24.560Z,99625.84
2023-10-05T17:57:27.796Z,99620.69
2023-10-05T18:00:32.608Z,99632.28
2023-10-05T18:03:36.119Z,99627.66
2023-10-05T18:06:39.830Z,99639.63
2023-10-05T18:09:43.425Z,99631.81
2023-10-05T18:12:46.677Z,99634.06
2023-10-05T18:15:53.037Z,99635.19
2023-10-05T18:18:56.316Z,99646.47
2023-10-05T18:21:59.741Z,99649.63
2023-10-05T18:25:04.757Z,99655.91
2023-10-05T18:28:10.453Z,99666.66
2023-10-05T18:31:16.160Z,99676.25
2023-10-05T18:34:19.519Z,99679.22
2023-10-05T18:37:22.904Z,99682.66
2023-10-05T18:40:27.015Z,99685.44
2023-10-05T18:43:30.311Z,99691.47
2023-10-05T18:46:35.190Z,99695.38
2023-10-05T18:49:38.879Z,99689.84
2023-10-05T18:52:42.422Z,99692.44
2023-10-05T18:55:48.608Z,99693.84
2023-10-05T18:58:52.075Z,99695.44
2023-10-05T19:01:59.549Z,99689.50
2023-10-05T19:05:03.225Z,99695.75
2023-10-05T19:08:06.810Z,99694.03
2023-10-05T19:11:11.321Z,99697.13
2023-10-05T19:14:14.833Z,99701.09
2023-10-05T19:17:20.684Z,99712.00
2023-10-05T19:20:24.338Z,99711.03
2023-10-05T19:23:27.736Z,99709.19
2023-10-05T19:26:31.012Z,99714.75
2023-10-05T19:29:34.250Z,99715.59
2023-10-05T19:32:39.947Z,99714.69
2023-10-05T19:35:43.341Z,99722.38
2023-10-05T19:38:46.722Z,99728.50
2023-10-05T19:41:50.244Z,99725.53
2023-10-05T19:44:53.443Z,99733.91
2023-10-05T19:47:58.146Z,99743.28
2023-10-05T19:51:06.566Z,99743.50
2023-10-05T19:54:13.977Z,99738.16
2023-10-05T19:57:18.437Z,99748.53
2023-10-05T20:00:21.887Z,99742.09
2023-10-05T20:03:26.616Z,99745.19
2023-10-05T20:06:30.182Z,99740.00
2023-10-05T20:09:35.273Z,99757.59
2023-10-05T20:12:38.646Z,99752.78
2023-10-05T20:15:42.712Z,99757.41
2023-10-05T20:18:47.513Z,99749.81
2023-10-05T20:21:51.367Z,99753.78
2023-10-05T20:24:54.594Z,99751.81
2023-10-05T20:27:59.097Z,99759.03
2023-10-05T20:31:05.349Z,99758.13
2023-10-05T20:34:10.258Z,99750.34
2023-10-05T20:37:13.932Z,99756.56
2023-10-05T20:40:17.562Z,99748.97
2023-10-05T20:43:20.924Z,99744.28
2023-10-05T20:46:24.567Z,99755.72
2023-10-05T20:49:34.868Z,99752.72
2023-10-05T20:52:39.169Z,99753.69
2023-10-05T20:55:42.425Z,99759.56
2023-10-05T20:58:45.727Z,99758.72
2023-10-05T21:01:49.034Z,99763.84
2023-10-05T21:04:53.745Z,99765.44
2023-10-05T21:07:57.211Z,99770.75
2023-10-05T21:11:01.118Z,99769.75
2023-10-05T21:14:04.582Z,99782.06
2023-10-05T21:17:07.988Z,99780.69
2023-10-05T21:20:14.897Z,99772.53
2023-10-05T21:23:19.001Z,99770.94
2023-10-05T21:26:22.368Z,99771.31
2023-10-05T21:29:27.085Z,99774.97
2023-10-05T21:32:30.397Z,99773.50
2023-10-05T21:35:35.428Z,99776.78
2023-10-05T21:38:38.673Z,99783.72
2023-10-05T21:41:42.602Z,99786.63
2023-10-05T21:44:45.843Z,99792.91
2023-10-05T21:47:49.457Z,99783.00
2023-10-05T21:50:54.563Z,99785.31
2023-10-05T21:53:57.929Z,99783.81
2023-10-05T21:57:01.583Z,99780.06
2023-10-05T22:00:10.074Z,99785.34
2023-10-05T22:03:14.108Z,99781.38
2023-10-05T22:06:20.756Z,99782.94
2023-10-05T22:09:26.093Z,99783.59
2023-10-05T22:12:35.816Z,99785.47
2023-10-05T22:15:41.011Z,99785.84
2023-10-05T22:18:44.281Z,99786.25
2023-10-05T22:21:48.916Z,99786.47
2023-10-05T22:24:52.351Z,99794.56
2023-10-05T22:27:55.876Z,99789.44
2023-10-05T22:30:59.241Z,99796.31
2023-10-05T22:34:02.586Z,99795.50
2023-10-05T22:37:07.309Z,99795.25
2023-10-05T22:40:14.115Z,99798.94
2023-10-05T22:43:17.423Z,99797.50
2023-10-05T22:46:21.167Z,99803.59
2023-10-05T22:49:31.010Z,99814.25
2023-10-05T22:52:35.836Z,99818.91
2023-10-05T22:55:41.491Z,99824.03
2023-10-05T22:58:44.902Z,99828.22
2023-10-05T23:01:48.640Z,99832.00
2023-10-05T23:04:51.936Z,99838.50
2023-10-05T23:07:57.562Z,99839.81
2023-10-05T23:11:01.443Z,99840.44
2023-10-05T23:14:05.615Z,99844.41
2023-10-05T23:17:09.663Z,99838.66
2023-10-05T23:20:13.677Z,99842.59
2023-10-05T23:23:18.333Z,99849.63
2023-10-05T23:26:25.161Z,99851.13
2023-10-05T23:29:30.136Z,99852.41
2023-10-05T23:32:33.536Z,99864.94
2023-10-05T23:35:39.442Z,99870.25
2023-10-05T23:38:44.166Z,99868.63
2023-10-05T23:41:47.425Z,99871.03
2023-10-05T23:44:50.893Z,99873.84
2023-10-05T23:47:55.170Z,99879.31
2023-10-05T23:51:00.779Z,99871.34
2023-10-05T23:54:06.674Z,99874.66
2023-10-05T23:57:18.473Z,99886.44
